createdAt,value
2023-03-10T00:00:17.290Z,98800.66
2023-03-10T00:02:49.491Z,98800.88
2023-03-10T00:05:18.440Z,98793.22
2023-03-10T00:07:46.280Z,98792.06
2023-03-10T00:10:15.059Z,98790.63
2023-03-10T00:12:42.444Z,98781.00
2023-03-10T00:15:10.599Z,98786.47
2023-03-10T00:17:38.416Z,98787.03
2023-03-10T00:20:07.894Z,98787.84
2023-03-10T00:22:36.226Z,98782.44
2023-03-10T00:25:03.649Z,98790.50
2023-03-10T00:27:31.069Z,98787.88
2023-03-10T00:29:58.503Z,98794.69
2023-03-10T00:32:26.336Z,98794.53
2023-03-10T00:34:53.794Z,98781.75
2023-03-10T00:37:21.223Z,98789.56
2023-03-10T00:39:52.391Z,98789.25
2023-03-10T00:42:19.971Z,98793.84
2023-03-10T00:44:48.061Z,98791.91
2023-03-10T00:47:16.069Z,98780.03
2023-03-10T00:49:43.500Z,98788.09
2023-03-10T00:52:10.940Z,98782.00
2023-03-10T00:54:39.977Z,98780.94
2023-03-10T00:57:07.475Z,98787.13
2023-03-10T00:59:49.382Z,98791.16
2023-03-10T01:02:17.300Z,98791.03
2023-03-10T01:04:44.827Z,98792.09
2023-03-10T01:07:12.331Z,98780.72
2023-03-10T01:09:39.720Z,98785.66
2023-03-10T01:12:07.303Z,98785.06
2023-03-10T01:14:34.740Z,98784.03
2023-03-10T01:17:04.137Z,98775.13
2023-03-10T01:19:31.596Z,98778.22
2023-03-10T01:21:59.014Z,98775.78
2023-03-10T01:24:26.444Z,98778.41
2023-03-10T01:26:53.831Z,98782.81
2023-03-10T01:29:21.284Z,98773.81
2023-03-10T01:31:48.730Z,98764.59
2023-03-10T01:34:16.179Z,98763.66
2023-03-10T01:36:43.593Z,98751.75
2023-03-10T01:39:10.964Z,98749.78
2023-03-10T01:41:39.072Z,98739.69
2023-03-10T01:44:06.887Z,98743.69
2023-03-10T01:46:37.108Z,98733.97
2023-03-10T01:49:07.167Z,98726.69
2023-03-10T01:51:35.471Z,98736.63
2023-03-10T01:54:05.232Z,98727.59
2023-03-10T01:56:32.671Z,98732.75
2023-03-10T01:59:00.051Z,98737.88
2023-03-10T02:01:27.432Z,98731.00
2023-03-10T02:03:57.817Z,98727.13
2023-03-10T02:06:26.925Z,98720.91
2023-03-10T02:08:55.981Z,98722.28
2023-03-10T02:11:23.469Z,98718.25
2023-03-10T02:13:50.894Z,98703.25
2023-03-10T02:16:18.938Z,98707.50
2023-03-10T02:18:47.887Z,98704.66
2023-03-10T02:21:15.277Z,98707.69
2023-03-10T02:24:01.083Z,98708.69
2023-03-10T02:26:41.551Z,98696.84
2023-03-10T02:29:11.578Z,98697.31
2023-03-10T02:31:39.442Z,98692.06
2023-03-10T02:34:07.136Z,98692.53
2023-03-10T02:36:34.548Z,98688.19
2023-03-10T02:39:01.910Z,98670.69
2023-03-10T02:41:31.599Z,98678.16
2023-03-10T02:44:00.767Z,98680.88
2023-03-10T02:46:28.214Z,98676.97
2023-03-10T02:48:55.807Z,98666.22
2023-03-10T02:51:25.538Z,98663.44
2023-03-10T02:53:52.907Z,98662.84
2023-03-10T02:56:20.335Z,98664.88
2023-03-10T02:58:47.763Z,98663.94
2023-03-10T03:01:15.291Z,98667.50
2023-03-10T03:03:42.892Z,98661.56
2023-03-10T03:06:10.766Z,98666.44
2023-03-10T03:08:38.233Z,98663.56
2023-03-10T03:11:06.003Z,98666.19
2023-03-10T03:13:33.409Z,98658.31
2023-03-10T03:16:01.017Z,98663.00
2023-03-10T03:18:28.444Z,98664.94
2023-03-10T03:20:55.803Z,98669.06
2023-03-10T03:23:23.272Z,98662.25
2023-03-10T03:25:50.859Z,98660.16
2023-03-10T03:28:18.265Z,98668.13
2023-03-10T03:30:46.149Z,98666.88
2023-03-10T03:33:13.565Z,98663.41
2023-03-10T03:35:41.050Z,98664.38
2023-03-10T03:38:08.546Z,98659.59
2023-03-10T03:40:37.145Z,98658.69
2023-03-10T03:43:05.353Z,98660.59
2023-03-10T03:45:33.164Z,98650.84
2023-03-10T03:48:00.608Z,98655.38
2023-03-10T03:50:28.586Z,98664.09
2023-03-10T03:52:56.017Z,98669.41
2023-03-10T03:55:23.519Z,98662.47
2023-03-10T03:57:50.953Z,98667.84
2023-03-10T04:00:19.567Z,98675.66
2023-03-10T04:02:47.148Z,98672.50
2023-03-10T04:05:14.658Z,98674.16
2023-03-10T04:07:42.672Z,98672.53
2023-03-10T04:10:11.615Z,98673.63
2023-03-10T04:12:39.099Z,98671.38
2023-03-10T04:15:08.290Z,98677.56
2023-03-10T04:17:36.321Z,98668.38
2023-03-10T04:20:08.021Z,98669.41
2023-03-10T04:22:36.647Z,98667.00
2023-03-10T04:25:04.288Z,98665.75
2023-03-10T04:27:31.967Z,98661.94
2023-03-10T04:29:59.639Z,98665.22
2023-03-10T04:32:27.314Z,98666.06
2023-03-10T04:34:54.726Z,98660.91
2023-03-10T04:37:22.471Z,98665.47
2023-03-10T04:39:49.933Z,98654.63
2023-03-10T04:42:17.356Z,98656.47
2023-03-10T04:44:44.893Z,98655.66
2023-03-10T04:47:12.329Z,98644.25
2023-03-10T04:49:39.818Z,98643.97
2023-03-10T04:52:07.652Z,98647.59
2023-03-10T04:54:35.161Z,98635.91
2023-03-10T04:57:03.189Z,98634.28
2023-03-10T04:59:30.567Z,98637.63
2023-03-10T05:01:58.006Z,98640.16
2023-03-10T05:04:25.481Z,98659.13
2023-03-10T05:06:53.336Z,98654.50
2023-03-10T05:09:20.769Z,98675.25
2023-03-10T05:11:48.204Z,98681.66
2023-03-10T05:14:15.995Z,98673.84
2023-03-10T05:16:43.343Z,98665.53
2023-03-10T05:19:10.786Z,98658.84
2023-03-10T05:21:38.168Z,98663.66
2023-03-10T05:24:05.635Z,98653.22
2023-03-10T05:26:34.923Z,98652.97
2023-03-10T05:29:02.467Z,98656.59
2023-03-10T05:31:29.996Z,98657.88
2023-03-10T05:33:57.475Z,98660.47
2023-03-10T05:36:24.870Z,98663.78
2023-03-10T05:38:52.349Z,98659.22
2023-03-10T05:41:19.794Z,98660.22
2023-03-10T05:43:47.229Z,98658.59
2023-03-10T05:46:14.677Z,98663.59
2023-03-10T05:48:42.142Z,98657.53
2023-03-10T05:51:11.002Z,98647.63
2023-03-10T05:53:38.619Z,98653.59
2023-03-10T05:56:07.513Z,98648.38
2023-03-10T05:58:34.938Z,98646.41
2023-03-10T06:01:02.376Z,98646.19
2023-03-10T06:03:30.201Z,98651.13
2023-03-10T06:05:58.303Z,98650.31
2023-03-10T06:08:27.866Z,98657.22
2023-03-10T06:10:55.331Z,98658.56
2023-03-10T06:13:22.713Z,98658.44
2023-03-10T06:15:51.738Z,98648.25
2023-03-10T06:18:20.256Z,98651.75
2023-03-10T06:20:48.074Z,98659.91
2023-03-10T06:23:18.616Z,98665.75
2023-03-10T06:25:55.996Z,98667.97
2023-03-10T06:28:23.394Z,98670.31
2023-03-10T06:30:57.615Z,98664.91
2023-03-10T06:33:25.580Z,98661.50
2023-03-10T06:35:53.020Z,98661.16
2023-03-10T06:38:20.456Z,98656.75
2023-03-10T06:40:47.879Z,98654.13
2023-03-10T06:43:15.391Z,98641.72
2023-03-10T06:45:43.911Z,98644.41
2023-03-10T06:48:11.541Z,98650.75
2023-03-10T06:50:41.815Z,98651.38
2023-03-10T06:53:09.344Z,98651.09
2023-03-10T06:55:36.744Z,98647.75
2023-03-10T06:58:04.113Z,98646.81
2023-03-10T07:00:31.485Z,98656.44
2023-03-10T07:02:58.905Z,98655.59
2023-03-10T07:05:27.398Z,98643.53
2023-03-10T07:07:55.766Z,98651.38
2023-03-10T07:10:23.846Z,98659.88
2023-03-10T07:12:55.216Z,98663.50
2023-03-10T07:15:23.563Z,98668.53
2023-03-10T07:17:50.974Z,98668.22
2023-03-10T07:20:19.134Z,98662.44
2023-03-10T07:22:46.570Z,98662.41
2023-03-10T07:25:13.997Z,98673.41
2023-03-10T07:27:41.476Z,98670.22
2023-03-10T07:30:09.378Z,98672.78
2023-03-10T07:32:36.870Z,98676.38
2023-03-10T07:35:04.944Z,98674.59
2023-03-10T07:37:32.324Z,98679.22
2023-03-10T07:40:00.388Z,98688.72
2023-03-10T07:42:27.921Z,98680.91
2023-03-10T07:44:55.530Z,98691.00
2023-03-10T07:47:23.017Z,98687.53
2023-03-10T07:49:50.501Z,98686.78
2023-03-10T07:52:19.590Z,98697.16
2023-03-10T07:54:47.390Z,98694.41
2023-03-10T07:57:15.549Z,98698.91
2023-03-10T07:59:43.059Z,98699.63
2023-03-10T08:02:13.301Z,98709.06
2023-03-10T08:04:41.226Z,98708.06
2023-03-10T08:07:09.103Z,98702.00
2023-03-10T08:09:36.989Z,98705.69
2023-03-10T08:12:04.612Z,98712.44
2023-03-10T08:14:32.629Z,98718.13
2023-03-10T08:17:00.302Z,98715.53
2023-03-10T08:19:28.498Z,98718.16
2023-03-10T08:21:57.552Z,98717.44
2023-03-10T08:24:25.956Z,98722.34
2023-03-10T08:26:53.408Z,98722.41
2023-03-10T08:29:21.165Z,98706.34
2023-03-10T08:31:49.122Z,98719.94
2023-03-10T08:34:17.137Z,98728.41
2023-03-10T08:36:45.171Z,98728.38
2023-03-10T08:39:13.434Z,98722.31
2023-03-10T08:41:49.110Z,98725.53
2023-03-10T08:44:18.004Z,98729.53
2023-03-10T08:46:47.182Z,98727.66
2023-03-10T08:49:15.537Z,98724.31
2023-03-10T08:51:43.612Z,98729.19
2023-03-10T08:54:15.698Z,98729.34
2023-03-10T08:56:43.098Z,98733.63
2023-03-10T08:59:10.925Z,98717.56
2023-03-10T09:01:38.769Z,98730.16
2023-03-10T09:04:07.206Z,98736.38
2023-03-10T09:06:35.229Z,98734.75
2023-03-10T09:09:02.959Z,98737.25
2023-03-10T09:11:32.598Z,98711.19
2023-03-10T09:14:00.926Z,98735.56
2023-03-10T09:16:29.467Z,98748.16
2023-03-10T09:19:00.393Z,98738.03
2023-03-10T09:21:28.345Z,98739.53
2023-03-10T09:23:55.723Z,98735.97
2023-03-10T09:26:23.359Z,98732.31
2023-03-10T09:28:51.251Z,98744.44
2023-03-10T09:31:20.240Z,98738.75
2023-03-10T09:33:48.380Z,98731.00
2023-03-10T09:36:16.500Z,98744.09
2023-03-10T09:38:44.162Z,98739.50
2023-03-10T09:41:14.753Z,98733.63
2023-03-10T09:43:50.485Z,98731.13
2023-03-10T09:46:23.823Z,98743.03
2023-03-10T09:49:05.749Z,98736.38
2023-03-10T09:51:33.188Z,98753.47
2023-03-10T09:54:25.247Z,98762.81
2023-03-10T09:56:55.450Z,98765.78
2023-03-10T09:59:31.529Z,98763.84
2023-03-10T10:02:00.822Z,98770.41
2023-03-10T10:04:28.245Z,98770.41
2023-03-10T10:06:57.768Z,98773.88
2023-03-10T10:09:25.287Z,98775.59
2023-03-10T10:11:52.746Z,98775.63
2023-03-10T10:14:31.861Z,98779.13
2023-03-10T10:17:22.596Z,98787.88
2023-03-10T10:19:50.880Z,98792.81
2023-03-10T10:22:21.350Z,98801.25
2023-03-10T10:25:02.662Z,98793.69
2023-03-10T10:27:31.988Z,98797.97
2023-03-10T10:29:59.370Z,98803.22
2023-03-10T10:32:26.786Z,98801.38
2023-03-10T10:35:13.044Z,98804.97
2023-03-10T10:37:43.039Z,98804.88
2023-03-10T10:40:24.127Z,98796.38
2023-03-10T10:42:55.529Z,98791.22
2023-03-10T10:45:29.952Z,98800.75
2023-03-10T10:47:57.546Z,98799.66
2023-03-10T10:50:26.726Z,98798.06
2023-03-10T10:53:12.837Z,98805.66
2023-03-10T10:55:40.836Z,98811.69
2023-03-10T10:58:25.745Z,98807.56
2023-03-10T11:00:58.662Z,98811.00
2023-03-10T11:03:28.283Z,98813.59
2023-03-10T11:05:56.566Z,98818.53
2023-03-10T11:08:32.895Z,98823.53
2023-03-10T11:11:17.740Z,98816.81
2023-03-10T11:14:08.261Z,98819.28
2023-03-10T11:16:43.045Z,98817.72
2023-03-10T11:19:10.458Z,98821.97
2023-03-10T11:21:42.800Z,98812.56
2023-03-10T11:24:20.993Z,98813.59
2023-03-10T11:26:53.216Z,98815.19
2023-03-10T11:29:24.962Z,98812.50
2023-03-10T11:32:00.047Z,98813.38
2023-03-10T11:34:31.483Z,98811.66
2023-03-10T11:36:58.903Z,98811.25
2023-03-10T11:39:45.596Z,98804.69
2023-03-10T11:42:21.901Z,98806.69
2023-03-10T11:44:59.217Z,98805.59
2023-03-10T11:47:41.916Z,98809.88
2023-03-10T11:50:18.807Z,98798.59
2023-03-10T11:52:46.813Z,98803.22
2023-03-10T11:55:22.600Z,98807.81
2023-03-10T11:57:51.419Z,98814.75
2023-03-10T12:00:39.201Z,98813.22
2023-03-10T12:03:15.559Z,98805.50
2023-03-10T12:05:55.545Z,98803.69
2023-03-10T12:08:25.735Z,98799.34
2023-03-10T12:10:53.884Z,98805.97
2023-03-10T12:13:27.053Z,98802.19
2023-03-10T12:15:56.759Z,98825.91
2023-03-10T12:18:26.750Z,98824.91
2023-03-10T12:21:13.721Z,98810.91
2023-03-10T12:23:45.511Z,98823.66
2023-03-10T12:26:12.991Z,98826.66
2023-03-10T12:28:40.866Z,98812.22
2023-03-10T12:31:27.096Z,98809.78
2023-03-10T12:34:03.828Z,98808.66
2023-03-10T12:36:32.589Z,98807.91
2023-03-10T12:39:00.124Z,98805.97
2023-03-10T12:41:27.672Z,98797.13
2023-03-10T12:43:59.513Z,98807.00
2023-03-10T12:46:39.427Z,98814.47
2023-03-10T12:49:25.748Z,98813.66
2023-03-10T12:52:16.143Z,98820.34
2023-03-10T12:54:52.294Z,98809.06
2023-03-10T12:57:38.225Z,98822.59
2023-03-10T13:00:24.435Z,98839.75
2023-03-10T13:02:55.604Z,98838.91
2023-03-10T13:05:49.219Z,98841.34
2023-03-10T13:08:23.391Z,98848.34
2023-03-10T13:10:56.611Z,98868.88
2023-03-10T13:13:26.304Z,98839.06
2023-03-10T13:16:01.140Z,98873.13
2023-03-10T13:18:28.718Z,98866.34
2023-03-10T13:20:56.163Z,98871.34
2023-03-10T13:23:27.766Z,98872.28
2023-03-10T13:25:56.693Z,98884.50
2023-03-10T13:28:24.818Z,98901.47
2023-03-10T13:30:52.226Z,98912.66
2023-03-10T13:33:25.924Z,98925.75
2023-03-10T13:35:53.884Z,98934.47
2023-03-10T13:38:24.466Z,98942.16
2023-03-10T13:40:57.760Z,98950.69
2023-03-10T13:43:33.706Z,98966.09
2023-03-10T13:46:02.194Z,98987.53
2023-03-10T13:48:30.794Z,99014.81
2023-03-10T13:51:07.241Z,99025.22
2023-03-10T13:53:34.765Z,99044.13
2023-03-10T13:56:09.768Z,99055.22
2023-03-10T13:58:37.410Z,99073.25
2023-03-10T14:01:05.080Z,99079.28
2023-03-10T14:03:32.619Z,99099.88
2023-03-10T14:06:00.124Z,99113.56
2023-03-10T14:08:30.897Z,99137.53
2023-03-10T14:11:37.174Z,99155.47
2023-03-10T14:14:07.853Z,99152.09
2023-03-10T14:16:44.937Z,99166.63
2023-03-10T14:19:12.859Z,99198.28
2023-03-10T14:21:52.435Z,99213.69
2023-03-10T14:24:27.731Z,99229.06
2023-03-10T14:26:56.539Z,99235.91
2023-03-10T14:29:23.905Z,99256.44
2023-03-10T14:31:51.685Z,99275.31
2023-03-10T14:34:19.137Z,99281.28
2023-03-10T14:36:46.589Z,99304.38
2023-03-10T14:39:14.427Z,99300.94
2023-03-10T14:41:42.002Z,99296.63
2023-03-10T14:44:10.970Z,99334.34
2023-03-10T14:46:38.578Z,99345.41
2023-03-10T14:49:13.108Z,99348.78
2023-03-10T14:51:40.462Z,99365.91
2023-03-10T14:54:16.937Z,99381.31
2023-03-10T14:56:44.418Z,99399.28
2023-03-10T14:59:15.572Z,99397.56
2023-03-10T15:01:43.905Z,99403.44
2023-03-10T15:04:15.882Z,99375.06
2023-03-10T15:06:44.008Z,99411.84
2023-03-10T15:09:11.879Z,99406.84
2023-03-10T15:11:39.730Z,99455.69
2023-03-10T15:14:20.376Z,99471.16
2023-03-10T15:16:47.814Z,99474.59
2023-03-10T15:19:23.706Z,99464.34
2023-03-10T15:21:51.313Z,99500.09
2023-03-10T15:24:19.011Z,99509.66
2023-03-10T15:26:48.129Z,99518.22
2023-03-10T15:29:16.410Z,99538.97
2023-03-10T15:31:44.133Z,99548.31
2023-03-10T15:34:11.551Z,99542.19
2023-03-10T15:36:39.041Z,99555.97
2023-03-10T15:39:06.502Z,99573.91
2023-03-10T15:41:37.200Z,99593.50
2023-03-10T15:44:05.190Z,99597.69
2023-03-10T15:46:32.787Z,99598.59
2023-03-10T15:49:01.146Z,99631.94
2023-03-10T15:51:28.589Z,99637.13
2023-03-10T15:53:56.014Z,99640.78
2023-03-10T15:56:23.489Z,99660.25
2023-03-10T15:58:51.228Z,99667.97
2023-03-10T16:01:20.828Z,99674.91
2023-03-10T16:03:48.735Z,99668.16
2023-03-10T16:06:16.176Z,99666.44
2023-03-10T16:08:44.042Z,99700.63
2023-03-10T16:11:18.882Z,99721.41
2023-03-10T16:13:49.296Z,99753.78
2023-03-10T16:16:19.247Z,99756.28
2023-03-10T16:18:47.400Z,99755.59
2023-03-10T16:21:17.824Z,99779.41
2023-03-10T16:23:45.492Z,99787.00
2023-03-10T16:26:14.584Z,99799.91
2023-03-10T16:28:44.976Z,99804.44
2023-03-10T16:31:13.328Z,99808.59
2023-03-10T16:33:41.194Z,99819.81
2023-03-10T16:36:09.779Z,99824.94
2023-03-10T16:38:37.420Z,99825.91
2023-03-10T16:41:05.175Z,99830.84
2023-03-10T16:43:33.126Z,99829.22
2023-03-10T16:46:10.917Z,99855.22
2023-03-10T16:48:42.021Z,99859.59
2023-03-10T16:51:18.879Z,99862.91
2023-03-10T16:53:46.802Z,99879.31
2023-03-10T16:56:14.419Z,99877.56
2023-03-10T16:58:41.971Z,99881.72
2023-03-10T17:01:09.519Z,99876.75
2023-03-10T17:03:39.821Z,99890.41
2023-03-10T17:06:12.632Z,99903.38
2023-03-10T17:08:40.675Z,99896.69
2023-03-10T17:11:09.056Z,99912.06
2023-03-10T17:13:37.807Z,99911.09
2023-03-10T17:16:12.441Z,99921.53
2023-03-10T17:18:39.982Z,99941.94
2023-03-10T17:21:27.452Z,99955.03
2023-03-10T17:23:54.886Z,99963.69
2023-03-10T17:26:22.583Z,99966.34
2023-03-10T17:28:51.527Z,99987.56
2023-03-10T17:31:23.515Z,100001.63
2023-03-10T17:33:51.212Z,99993.06
2023-03-10T17:36:19.027Z,100000.78
2023-03-10T17:38:46.471Z,99999.25
2023-03-10T17:41:15.857Z,99996.66
2023-03-10T17:43:43.527Z,100006.91
2023-03-10T17:46:18.974Z,100019.00
2023-03-10T17:48:46.921Z,100031.06
2023-03-10T17:51:17.939Z,100034.44
2023-03-10T17:53:46.202Z,100049.81
2023-03-10T17:56:14.116Z,100051.59
2023-03-10T17:58:41.534Z,100073.19
2023-03-10T18:01:10.090Z,100063.59
2023-03-10T18:03:38.123Z,100084.22
2023-03-10T18:06:09.092Z,100088.53
2023-03-10T18:08:36.519Z,100101.50
2023-03-10T18:11:05.040Z,100113.28
2023-03-10T18:13:32.544Z,100119.31
2023-03-10T18:16:00.207Z,100130.28
2023-03-10T18:18:27.737Z,100135.25
2023-03-10T18:20:55.211Z,100142.41
2023-03-10T18:23:23.148Z,100148.44
2023-03-10T18:25:51.370Z,100156.09
2023-03-10T18:28:19.606Z,100168.19
2023-03-10T18:30:48.221Z,100167.59
2023-03-10T18:33:16.342Z,100164.16
2023-03-10T18:35:44.778Z,100178.97
2023-03-10T18:38:12.944Z,100174.53
2023-03-10T18:40:40.966Z,100172.03
2023-03-10T18:43:08.914Z,100171.34
2023-03-10T18:45:39.267Z,100182.03
2023-03-10T18:48:07.685Z,100192.44
2023-03-10T18:50:35.104Z,100189.88
2023-03-10T18:53:02.608Z,100189.88
2023-03-10T18:55:29.987Z,100195.13
2023-03-10T18:57:57.366Z,100214.09
2023-03-10T19:00:24.998Z,100218.31
2023-03-10T19:02:54.251Z,100224.25
2023-03-10T19:05:22.002Z,100218.44
2023-03-10T19:07:49.427Z,100234.00
2023-03-10T19:10:18.068Z,100236.56
2023-03-10T19:12:45.445Z,100239.41
2023-03-10T19:15:14.088Z,100244.38
2023-03-10T19:17:41.927Z,100247.19
2023-03-10T19:20:12.005Z,100258.84
2023-03-10T19:22:40.065Z,100269.94
2023-03-10T19:25:08.880Z,100281.75
2023-03-10T19:27:39.709Z,100281.75
2023-03-10T19:30:12.056Z,100290.81
2023-03-10T19:32:39.995Z,100290.72
2023-03-10T19:35:08.668Z,100304.38
2023-03-10T19:37:36.834Z,100313.94
2023-03-10T19:40:06.230Z,100320.25
2023-03-10T19:42:34.600Z,100322.78
2023-03-10T19:45:02.227Z,100322.00
2023-03-10T19:47:32.954Z,100323.69
2023-03-10T19:50:00.359Z,100318.41
2023-03-10T19:52:27.786Z,100331.13
2023-03-10T19:54:55.210Z,100338.03
2023-03-10T19:57:23.124Z,100328.72
2023-03-10T19:59:50.613Z,100339.50
2023-03-10T20:02:18.753Z,100350.94
2023-03-10T20:04:47.651Z,100350.13
2023-03-10T20:07:15.247Z,100351.59
2023-03-10T20:09:42.690Z,100355.31
2023-03-10T20:12:10.119Z,100354.22
2023-03-10T20:14:37.554Z,100368.81
2023-03-10T20:17:05.137Z,100374.03
2023-03-10T20:19:32.539Z,100372.38
2023-03-10T20:21:59.952Z,100377.00
2023-03-10T20:24:27.371Z,100387.00
2023-03-10T20:26:55.963Z,100376.69
2023-03-10T20:29:23.354Z,100388.53
2023-03-10T20:31:50.810Z,100392.19
2023-03-10T20:34:21.716Z,100392.44
2023-03-10T20:36:49.508Z,100389.59
2023-03-10T20:39:16.896Z,100403.47
2023-03-10T20:41:45.105Z,100408.75
2023-03-10T20:44:14.116Z,100405.84
2023-03-10T20:46:44.137Z,100408.53
2023-03-10T20:49:11.944Z,100412.91
2023-03-10T20:51:40.276Z,100419.84
2023-03-10T20:54:07.761Z,100428.63
2023-03-10T20:56:35.197Z,100431.25
2023-03-10T20:59:02.701Z,100442.84
2023-03-10T21:01:30.705Z,100425.03
2023-03-10T21:03:58.629Z,100444.00
2023-03-10T21:06:27.760Z,100453.53
2023-03-10T21:08:55.145Z,100446.72
2023-03-10T21:11:22.726Z,100456.31
2023-03-10T21:13:50.890Z,100463.78
2023-03-10T21:16:20.700Z,100469.81
2023-03-10T21:18:48.259Z,100475.06
2023-03-10T21:21:15.655Z,100474.09
2023-03-10T21:23:43.431Z,100490.69
2023-03-10T21:26:14.521Z,100497.63
2023-03-10T21:28:42.310Z,100502.09
2023-03-10T21:31:09.728Z,100501.97
2023-03-10T21:33:37.229Z,100506.34
2023-03-10T21:36:04.909Z,100506.16
2023-03-10T21:38:32.958Z,100506.19
2023-03-10T21:41:00.370Z,100514.25
2023-03-10T21:43:27.871Z,100514.91
2023-03-10T21:45:55.334Z,100521.84
2023-03-10T21:48:22.737Z,100528.69
2023-03-10T21:50:50.126Z,100533.91
2023-03-10T21:53:17.578Z,100544.91
2023-03-10T21:55:45.165Z,100557.94
2023-03-10T21:58:12.542Z,100549.44
2023-03-10T22:00:39.946Z,100555.34
2023-03-10T22:03:07.638Z,100564.94
2023-03-10T22:05:35.038Z,100564.94
2023-03-10T22:08:04.264Z,100562.09
2023-03-10T22:10:31.854Z,100572.25
2023-03-10T22:12:59.287Z,100571.53
2023-03-10T22:15:27.811Z,100574.03
2023-03-10T22:17:56.614Z,100583.50
2023-03-10T22:20:25.910Z,100577.31
2023-03-10T22:22:53.597Z,100579.81
2023-03-10T22:25:20.995Z,100582.34
2023-03-10T22:27:53.011Z,100590.47
2023-03-10T22:30:21.318Z,100586.38
2023-03-10T22:32:49.249Z,100586.44
2023-03-10T22:35:17.249Z,100591.38
2023-03-10T22:37:45.247Z,100585.81
2023-03-10T22:40:17.603Z,100596.97
2023-03-10T22:42:45.392Z,100593.97
2023-03-10T22:45:15.858Z,100595.94
2023-03-10T22:47:43.247Z,100602.44
2023-03-10T22:50:13.754Z,100606.84
2023-03-10T22:52:41.902Z,100600.84
2023-03-10T22:55:09.530Z,100601.53
2023-03-10T22:57:36.970Z,100620.59
2023-03-10T23:00:05.114Z,100625.84
2023-03-10T23:02:32.636Z,100633.81
2023-03-10T23:05:00.025Z,100628.75
2023-03-10T23:07:27.398Z,100624.06
2023-03-10T23:09:54.768Z,100633.59
2023-03-10T23:12:22.242Z,100639.53
2023-03-10T23:14:49.691Z,100640.03
2023-03-10T23:17:17.114Z,100640.75
2023-03-10T23:19:44.528Z,100638.06
2023-03-10T23:22:11.935Z,100637.88
2023-03-10T23:24:39.400Z,100644.94
2023-03-10T23:27:06.846Z,100657.13
2023-03-10T23:29:34.260Z,100658.56
2023-03-10T23:32:01.677Z,100661.38
2023-03-10T23:34:29.106Z,100665.78
2023-03-10T23:36:58.233Z,100665.09
2023-03-10T23:39:25.951Z,100671.16
2023-03-10T23:41:53.368Z,100676.03
2023-03-10T23:44:21.375Z,100664.72
2023-03-10T23:46:52.501Z,100675.94
2023-03-10T23:49:22.047Z,100683.19
2023-03-10T23:51:52.403Z,100680.00
2023-03-10T23:54:22.321Z,100680.84
2023-03-10T23:56:51.036Z,100683.03
2023-03-10T23:59:18.498Z,100693.28
